KCKN

Details ICAO KCKN
Name CROOKSTON MUNI KIRKWOOD FLD
Region United States
Timezone America/Chicago (UTC-5.0)
Plans Departing 1
Arriving 2
Stats Elevation 899 ft / 274 m (AMSL)
Location 47.842137° -96.621175°
Runways 3
Magnetic Variation 2.681° E
Sunrise 2018-05-26 10:37:50 UTC / 2018-05-26 05:37:50 Local
Sunset 2018-05-27 02:12:09 UTC / 2018-05-26 21:12:09 Local
Advertisement - Login to hide

Runways

ID Width Length Bearing (true) Bearing (mag) Surface Threshold Offset Overrun Length
06 202 ft / 62 m 2,085 ft / 635 m 71.13° 68.45° Grass 0 ft / 0 m 0 ft / 0 m
13 75 ft / 23 m 4,294 ft / 1,309 m 133.20° 130.52° Asphalt 0 ft / 0 m 0 ft / 0 m
17 202 ft / 62 m 2,981 ft / 909 m 181.31° 178.63° Grass 0 ft / 0 m 0 ft / 0 m
24 202 ft / 62 m 2,085 ft / 635 m 251.14° 248.46° Grass 0 ft / 0 m 0 ft / 0 m
31 75 ft / 23 m 4,294 ft / 1,309 m 313.21° 310.53° Asphalt 0 ft / 0 m 0 ft / 0 m
35 202 ft / 62 m 2,981 ft / 909 m 1.31° 358.63° Grass 0 ft / 0 m 0 ft / 0 m

Map

Weather


0- 5 10 15 20 25 30 35+ Temperature / ° C

Clouds and Precipitation
Forecast for 2018-05-26 12:00 UTC. Updated 3 hours ago

Ground ~20,000 ft ~40,000 ft Winds

METAR

KCKN 261415Z AUTO 30010KT 10SM CLR 23/14 A2968 RMK AO2

TAF

Not found

Frequencies

Unicom 122.70 MHz CTAF/UNICOM
Approach 118.10 MHz GRAND FORKS APP/DEP
Clearance 118.15 MHz CLNC DEL
Warning: Do not use this data for real-world aviation or navigation. No guarantee of current accuracy is given.